sensor_id;sensor_type;location;lat;lon;timestamp;temperature;humidity
57108;DHT22;42987;52.916;6.542;2023-05-07T00:00:53;13.70;99.90
57108;DHT22;42987;52.916;6.542;2023-05-07T00:03:21;13.60;99.90
57108;DHT22;42987;52.916;6.542;2023-05-07T00:05:46;13.60;99.90
57108;DHT22;42987;52.916;6.542;2023-05-07T00:08:13;13.60;99.90
57108;DHT22;42987;52.916;6.542;2023-05-07T00:10:39;13.60;99.90
57108;DHT22;42987;52.916;6.542;2023-05-07T00:13:05;13.60;99.90
57108;DHT22;42987;52.916;6.542;2023-05-07T00:15:31;13.60;99.90
57108;DHT22;42987;52.916;6.542;2023-05-07T00:17:56;13.50;99.90
57108;DHT22;42987;52.916;6.542;2023-05-07T00:20:25;13.50;99.90
57108;DHT22;42987;52.916;6.542;2023-05-07T00:22:51;13.50;99.90
57108;DHT22;42987;52.916;6.542;2023-05-07T00:25:16;13.50;99.90
57108;DHT22;42987;52.916;6.542;2023-05-07T00:27:45;13.40;99.90
57108;DHT22;42987;52.916;6.542;2023-05-07T00:30:11;13.40;99.90
57108;DHT22;42987;52.916;6.542;2023-05-07T00:32:37;13.40;99.90
57108;DHT22;42987;52.916;6.542;2023-05-07T00:35:04;13.40;99.90
57108;DHT22;42987;52.916;6.542;2023-05-07T00:37:30;13.40;99.90
57108;DHT22;42987;52.916;6.542;2023-05-07T00:39:56;13.30;99.90
57108;DHT22;42987;52.916;6.542;2023-05-07T00:42:22;13.30;99.90
57108;DHT22;42987;52.916;6.542;2023-05-07T00:44:49;13.30;99.90
57108;DHT22;42987;52.916;6.542;2023-05-07T00:47:18;13.30;99.90
57108;DHT22;42987;52.916;6.542;2023-05-07T00:49:44;13.20;99.90
57108;DHT22;42987;52.916;6.542;2023-05-07T00:52:16;13.20;99.90
57108;DHT22;42987;52.916;6.542;2023-05-07T00:54:42;13.20;99.90
57108;DHT22;42987;52.916;6.542;2023-05-07T00:57:09;13.20;99.90
57108;DHT22;42987;52.916;6.542;2023-05-07T00:59:37;13.10;99.90
57108;DHT22;42987;52.916;6.542;2023-05-07T01:02:02;13.10;99.90
57108;DHT22;42987;52.916;6.542;2023-05-07T01:04:29;13.00;99.90
57108;DHT22;42987;52.916;6.542;2023-05-07T01:06:56;13.00;99.90
57108;DHT22;42987;52.916;6.542;2023-05-07T01:09:23;13.00;99.90
57108;DHT22;42987;52.916;6.542;2023-05-07T01:11:50;13.00;99.90
57108;DHT22;42987;52.916;6.542;2023-05-07T01:14:17;13.00;99.90
57108;DHT22;42987;52.916;6.542;2023-05-07T01:16:43;12.90;99.90
57108;DHT22;42987;52.916;6.542;2023-05-07T01:19:11;12.90;99.90
57108;DHT22;42987;52.916;6.542;2023-05-07T01:21:43;12.90;99.90
57108;DHT22;42987;52.916;6.542;2023-05-07T01:24:11;12.80;99.90
57108;DHT22;42987;52.916;6.542;2023-05-07T01:26:37;12.80;99.90
57108;DHT22;42987;52.916;6.542;2023-05-07T01:29:03;12.70;99.90
57108;DHT22;42987;52.916;6.542;2023-05-07T01:31:29;12.70;99.90
57108;DHT22;42987;52.916;6.542;2023-05-07T01:33:56;12.70;99.90
57108;DHT22;42987;52.916;6.542;2023-05-07T01:36:23;12.70;99.90
57108;DHT22;42987;52.916;6.542;2023-05-07T01:38:54;12.60;99.90
57108;DHT22;42987;52.916;6.542;2023-05-07T01:41:24;12.60;99.90
57108;DHT22;42987;52.916;6.542;2023-05-07T01:43:51;12.60;99.90
57108;DHT22;42987;52.916;6.542;2023-05-07T01:46:18;12.60;99.90
57108;DHT22;42987;52.916;6.542;2023-05-07T01:48:45;12.50;99.90
57108;DHT22;42987;52.916;6.542;2023-05-07T01:51:12;12.40;99.90
57108;DHT22;42987;52.916;6.542;2023-05-07T01:53:39;12.40;99.90
57108;DHT22;42987;52.916;6.542;2023-05-07T01:56:06;12.40;99.90
57108;DHT22;42987;52.916;6.542;2023-05-07T01:58:38;12.30;99.90
57108;DHT22;42987;52.916;6.542;2023-05-07T02:01:04;12.30;99.90
57108;DHT22;42987;52.916;6.542;2023-05-07T02:03:30;12.20;99.90
57108;DHT22;42987;52.916;6.542;2023-05-07T02:05:56;12.20;99.90
57108;DHT22;42987;52.916;6.542;2023-05-07T02:08:21;12.10;99.90
57108;DHT22;42987;52.916;6.542;2023-05-07T02:10:47;12.10;99.90
57108;DHT22;42987;52.916;6.542;2023-05-07T02:13:13;12.10;99.90
57108;DHT22;42987;52.916;6.542;2023-05-07T02:15:39;12.00;99.90
57108;DHT22;42987;52.916;6.542;2023-05-07T02:18:07;12.00;99.90
57108;DHT22;42987;52.916;6.542;2023-05-07T02:20:34;12.00;99.90
57108;DHT22;42987;52.916;6.542;2023-05-07T02:23:00;11.90;99.90
57108;DHT22;42987;52.916;6.542;2023-05-07T02:25:26;11.90;99.90
57108;DHT22;42987;52.916;6.542;2023-05-07T02:27:52;11.90;99.90
57108;DHT22;42987;52.916;6.542;2023-05-07T02:30:18;11.90;99.90
57108;DHT22;42987;52.916;6.542;2023-05-07T02:32:43;11.90;99.90
57108;DHT22;42987;52.916;6.542;2023-05-07T02:35:10;11.90;99.90
57108;DHT22;42987;52.916;6.542;2023-05-07T02:37:35;11.90;99.90
57108;DHT22;42987;52.916;6.542;2023-05-07T02:40:01;11.80;99.90
57108;DHT22;42987;52.916;6.542;2023-05-07T02:42:29;11.80;99.90
57108;DHT22;42987;52.916;6.542;2023-05-07T02:44:55;11.70;99.90
57108;DHT22;42987;52.916;6.542;2023-05-07T02:47:24;11.70;99.90
57108;DHT22;42987;52.916;6.542;2023-05-07T02:49:53;11.70;99.90
57108;DHT22;42987;52.916;6.542;2023-05-07T02:52:19;11.60;99.90
57108;DHT22;42987;52.916;6.542;2023-05-07T02:54:44;11.60;99.90
57108;DHT22;42987;52.916;6.542;2023-05-07T02:57:10;11.60;99.90
57108;DHT22;42987;52.916;6.542;2023-05-07T02:59:36;11.60;99.90
57108;DHT22;42987;52.916;6.542;2023-05-07T03:02:02;11.60;99.90
57108;DHT22;42987;52.916;6.542;2023-05-07T03:04:27;11.60;99.90
57108;DHT22;42987;52.916;6.542;2023-05-07T03:06:53;11.50;99.90
57108;DHT22;42987;52.916;6.542;2023-05-07T03:09:19;11.50;99.90
57108;DHT22;42987;52.916;6.542;2023-05-07T03:11:45;11.50;99.90
57108;DHT22;42987;52.916;6.542;2023-05-07T03:14:10;11.50;99.90
57108;DHT22;42987;52.916;6.542;2023-05-07T03:16:36;11.50;99.90
57108;DHT22;42987;52.916;6.542;2023-05-07T03:19:02;11.50;99.90
57108;DHT22;42987;52.916;6.542;2023-05-07T03:21:28;11.50;99.90
57108;DHT22;42987;52.916;6.542;2023-05-07T03:23:53;11.50;99.90
57108;DHT22;42987;52.916;6.542;2023-05-07T03:26:19;11.50;99.90
57108;DHT22;42987;52.916;6.542;2023-05-07T03:28:48;11.50;99.90
57108;DHT22;42987;52.916;6.542;2023-05-07T03:31:14;11.40;99.90
57108;DHT22;42987;52.916;6.542;2023-05-07T03:33:54;11.40;99.90
57108;DHT22;42987;52.916;6.542;2023-05-07T03:36:21;11.50;99.90
57108;DHT22;42987;52.916;6.542;2023-05-07T03:38:48;11.40;99.90
57108;DHT22;42987;52.916;6.542;2023-05-07T03:41:14;11.40;99.90
57108;DHT22;42987;52.916;6.542;2023-05-07T03:43:40;11.40;99.90
57108;DHT22;42987;52.916;6.542;2023-05-07T03:46:06;11.40;99.90
57108;DHT22;42987;52.916;6.542;2023-05-07T03:48:31;11.40;99.90
57108;DHT22;42987;52.916;6.542;2023-05-07T03:50:58;11.40;99.90
57108;DHT22;42987;52.916;6.542;2023-05-07T03:53:24;11.30;99.90
57108;DHT22;42987;52.916;6.542;2023-05-07T03:55:50;11.40;99.90
57108;DHT22;42987;52.916;6.542;2023-05-07T03:58:19;11.30;99.90
57108;DHT22;42987;52.916;6.542;2023-05-07T04:00:45;11.30;99.90
57108;DHT22;42987;52.916;6.542;2023-05-07T04:03:11;11.40;99.90
57108;DHT22;42987;52.916;6.542;2023-05-07T04:05:37;11.30;99.90
57108;DHT22;42987;52.916;6.542;2023-05-07T04:08:02;11.30;99.90
57108;DHT22;42987;52.916;6.542;2023-05-07T04:10:29;11.30;99.90
57108;DHT22;42987;52.916;6.542;2023-05-07T04:12:58;11.30;99.90
57108;DHT22;42987;52.916;6.542;2023-05-07T04:15:24;11.30;99.90
57108;DHT22;42987;52.916;6.542;2023-05-07T04:17:50;11.30;99.90
57108;DHT22;42987;52.916;6.542;2023-05-07T04:20:17;11.30;99.90
57108;DHT22;42987;52.916;6.542;2023-05-07T04:22:43;11.30;99.90
57108;DHT22;42987;52.916;6.542;2023-05-07T04:25:09;11.30;99.90
57108;DHT22;42987;52.916;6.542;2023-05-07T04:27:35;11.30;99.90
57108;DHT22;42987;52.916;6.542;2023-05-07T04:30:02;11.30;99.90
57108;DHT22;42987;52.916;6.542;2023-05-07T04:32:28;11.30;99.90
57108;DHT22;42987;52.916;6.542;2023-05-07T04:34:55;11.30;99.90
57108;DHT22;42987;52.916;6.542;2023-05-07T04:37:21;11.30;99.90
57108;DHT22;42987;52.916;6.542;2023-05-07T04:39:47;11.30;99.90
57108;DHT22;42987;52.916;6.542;2023-05-07T04:42:16;11.20;99.90
57108;DHT22;42987;52.916;6.542;2023-05-07T04:44:45;11.20;99.90
57108;DHT22;42987;52.916;6.542;2023-05-07T04:47:11;11.30;99.90
57108;DHT22;42987;52.916;6.542;2023-05-07T04:49:40;11.20;99.90
57108;DHT22;42987;52.916;6.542;2023-05-07T04:52:06;11.20;99.90
57108;DHT22;42987;52.916;6.542;2023-05-07T04:54:32;11.20;99.90
57108;DHT22;42987;52.916;6.542;2023-05-07T04:56:58;11.20;99.90
57108;DHT22;42987;52.916;6.542;2023-05-07T04:59:23;11.30;99.90
57108;DHT22;42987;52.916;6.542;2023-05-07T05:01:49;11.30;99.90
57108;DHT22;42987;52.916;6.542;2023-05-07T05:04:15;11.20;99.90
57108;DHT22;42987;52.916;6.542;2023-05-07T05:06:41;11.20;99.90
57108;DHT22;42987;52.916;6.542;2023-05-07T05:09:07;11.20;99.90
57108;DHT22;42987;52.916;6.542;2023-05-07T05:11:32;11.20;99.90
57108;DHT22;42987;52.916;6.542;2023-05-07T05:13:59;11.20;99.90
57108;DHT22;42987;52.916;6.542;2023-05-07T05:16:26;11.20;99.90
57108;DHT22;42987;52.916;6.542;2023-05-07T05:18:51;11.20;99.90
57108;DHT22;42987;52.916;6.542;2023-05-07T05:21:17;11.30;99.90
57108;DHT22;42987;52.916;6.542;2023-05-07T05:23:43;11.30;99.90
57108;DHT22;42987;52.916;6.542;2023-05-07T05:26:10;11.30;99.90
57108;DHT22;42987;52.916;6.542;2023-05-07T05:28:36;11.30;99.90
57108;DHT22;42987;52.916;6.542;2023-05-07T05:31:02;11.30;99.90
57108;DHT22;42987;52.916;6.542;2023-05-07T05:33:28;11.20;99.90
57108;DHT22;42987;52.916;6.542;2023-05-07T05:35:54;11.30;99.90
57108;DHT22;42987;52.916;6.542;2023-05-07T05:38:20;11.30;99.90
57108;DHT22;42987;52.916;6.542;2023-05-07T05:40:46;11.30;99.90
57108;DHT22;42987;52.916;6.542;2023-05-07T05:43:13;11.30;99.90
57108;DHT22;42987;52.916;6.542;2023-05-07T05:45:39;11.30;99.90
57108;DHT22;42987;52.916;6.542;2023-05-07T05:48:05;11.30;99.90
57108;DHT22;42987;52.916;6.542;2023-05-07T05:50:31;11.30;99.90
57108;DHT22;42987;52.916;6.542;2023-05-07T05:52:56;11.30;99.90
57108;DHT22;42987;52.916;6.542;2023-05-07T05:55:23;11.40;99.90
57108;DHT22;42987;52.916;6.542;2023-05-07T05:57:49;11.40;99.90
57108;DHT22;42987;52.916;6.542;2023-05-07T06:00:16;11.40;99.90
57108;DHT22;42987;52.916;6.542;2023-05-07T06:02:42;11.40;99.90
57108;DHT22;42987;52.916;6.542;2023-05-07T06:05:10;11.40;99.90
57108;DHT22;42987;52.916;6.542;2023-05-07T06:07:36;11.50;99.90
57108;DHT22;42987;52.916;6.542;2023-05-07T06:10:02;11.50;99.90
57108;DHT22;42987;52.916;6.542;2023-05-07T06:12:27;11.50;99.90
57108;DHT22;42987;52.916;6.542;2023-05-07T06:14:53;11.50;99.90
57108;DHT22;42987;52.916;6.542;2023-05-07T06:17:19;11.60;99.90
57108;DHT22;42987;52.916;6.542;2023-05-07T06:19:45;11.50;99.90
57108;DHT22;42987;52.916;6.542;2023-05-07T06:22:11;11.60;99.90
57108;DHT22;42987;52.916;6.542;2023-05-07T06:24:37;11.60;99.90
57108;DHT22;42987;52.916;6.542;2023-05-07T06:27:02;11.60;99.90
57108;DHT22;42987;52.916;6.542;2023-05-07T06:29:29;11.60;99.90
57108;DHT22;42987;52.916;6.542;2023-05-07T06:31:57;11.60;99.90
57108;DHT22;42987;52.916;6.542;2023-05-07T06:34:31;11.60;99.90
57108;DHT22;42987;52.916;6.542;2023-05-07T06:36:56;11.60;99.90
57108;DHT22;42987;52.916;6.542;2023-05-07T06:39:22;11.60;99.90
57108;DHT22;42987;52.916;6.542;2023-05-07T06:41:48;11.60;99.90
57108;DHT22;42987;52.916;6.542;2023-05-07T06:44:14;11.60;99.90
57108;DHT22;42987;52.916;6.542;2023-05-07T06:46:41;11.60;99.90
57108;DHT22;42987;52.916;6.542;2023-05-07T06:49:07;11.70;99.90
57108;DHT22;42987;52.916;6.542;2023-05-07T06:51:33;11.70;99.90
57108;DHT22;42987;52.916;6.542;2023-05-07T06:53:59;11.80;99.90
57108;DHT22;42987;52.916;6.542;2023-05-07T06:56:25;11.80;99.90
57108;DHT22;42987;52.916;6.542;2023-05-07T06:58:51;11.90;99.90
57108;DHT22;42987;52.916;6.542;2023-05-07T07:01:17;11.90;99.90
57108;DHT22;42987;52.916;6.542;2023-05-07T07:03:42;12.00;99.90
57108;DHT22;42987;52.916;6.542;2023-05-07T07:06:08;12.00;99.90
57108;DHT22;42987;52.916;6.542;2023-05-07T07:08:34;12.10;99.90
57108;DHT22;42987;52.916;6.542;2023-05-07T07:11:00;12.10;99.90
57108;DHT22;42987;52.916;6.542;2023-05-07T07:13:26;12.10;99.90
57108;DHT22;42987;52.916;6.542;2023-05-07T07:15:52;12.10;99.90
57108;DHT22;42987;52.916;6.542;2023-05-07T07:18:22;12.10;99.90
57108;DHT22;42987;52.916;6.542;2023-05-07T07:20:47;12.10;99.90
57108;DHT22;42987;52.916;6.542;2023-05-07T07:23:13;12.10;99.90
57108;DHT22;42987;52.916;6.542;2023-05-07T07:25:39;12.20;99.90
57108;DHT22;42987;52.916;6.542;2023-05-07T07:28:06;12.30;99.90
57108;DHT22;42987;52.916;6.542;2023-05-07T07:30:32;12.40;99.90
57108;DHT22;42987;52.916;6.542;2023-05-07T07:32:58;12.40;99.90
57108;DHT22;42987;52.916;6.542;2023-05-07T07:35:29;12.50;99.90
57108;DHT22;42987;52.916;6.542;2023-05-07T07:37:55;12.50;99.90
57108;DHT22;42987;52.916;6.542;2023-05-07T07:40:24;12.60;99.90
57108;DHT22;42987;52.916;6.542;2023-05-07T07:42:51;12.60;99.90
57108;DHT22;42987;52.916;6.542;2023-05-07T07:45:17;12.70;99.90
57108;DHT22;42987;52.916;6.542;2023-05-07T07:47:42;12.70;99.90
57108;DHT22;42987;52.916;6.542;2023-05-07T07:50:09;12.80;99.90
57108;DHT22;42987;52.916;6.542;2023-05-07T07:52:34;12.90;99.90
57108;DHT22;42987;52.916;6.542;2023-05-07T07:55:01;12.90;99.90
57108;DHT22;42987;52.916;6.542;2023-05-07T07:57:27;13.00;99.90
57108;DHT22;42987;52.916;6.542;2023-05-07T07:59:53;13.00;99.90
57108;DHT22;42987;52.916;6.542;2023-05-07T08:02:19;13.10;99.90
57108;DHT22;42987;52.916;6.542;2023-05-07T08:04:44;13.20;99.90
57108;DHT22;42987;52.916;6.542;2023-05-07T08:07:11;13.30;99.90
57108;DHT22;42987;52.916;6.542;2023-05-07T08:09:40;13.30;99.90
57108;DHT22;42987;52.916;6.542;2023-05-07T08:12:06;13.20;99.90
57108;DHT22;42987;52.916;6.542;2023-05-07T08:14:33;13.20;99.90
57108;DHT22;42987;52.916;6.542;2023-05-07T08:16:59;13.20;99.90
57108;DHT22;42987;52.916;6.542;2023-05-07T08:19:25;13.20;99.90
57108;DHT22;42987;52.916;6.542;2023-05-07T08:21:51;13.20;99.90
57108;DHT22;42987;52.916;6.542;2023-05-07T08:24:17;13.30;99.90
57108;DHT22;42987;52.916;6.542;2023-05-07T08:26:44;13.30;99.90
57108;DHT22;42987;52.916;6.542;2023-05-07T08:29:10;13.30;99.90
57108;DHT22;42987;52.916;6.542;2023-05-07T08:31:36;13.30;99.90
57108;DHT22;42987;52.916;6.542;2023-05-07T08:34:04;13.40;99.90
57108;DHT22;42987;52.916;6.542;2023-05-07T08:36:30;13.40;99.90
57108;DHT22;42987;52.916;6.542;2023-05-07T08:38:57;13.50;99.90
57108;DHT22;42987;52.916;6.542;2023-05-07T08:41:26;13.50;99.90
57108;DHT22;42987;52.916;6.542;2023-05-07T08:43:52;13.60;99.90
57108;DHT22;42987;52.916;6.542;2023-05-07T08:46:25;13.60;99.90
57108;DHT22;42987;52.916;6.542;2023-05-07T08:48:56;13.60;99.90
57108;DHT22;42987;52.916;6.542;2023-05-07T08:51:22;13.70;99.90
57108;DHT22;42987;52.916;6.542;2023-05-07T08:53:49;13.80;99.90
57108;DHT22;42987;52.916;6.542;2023-05-07T08:56:16;13.90;99.90
57108;DHT22;42987;52.916;6.542;2023-05-07T08:58:45;14.00;99.90
57108;DHT22;42987;52.916;6.542;2023-05-07T09:01:15;14.10;99.90
57108;DHT22;42987;52.916;6.542;2023-05-07T09:03:44;14.20;99.90
57108;DHT22;42987;52.916;6.542;2023-05-07T09:06:11;14.30;99.90
57108;DHT22;42987;52.916;6.542;2023-05-07T09:08:36;14.50;99.90
57108;DHT22;42987;52.916;6.542;2023-05-07T09:11:03;14.40;99.90
57108;DHT22;42987;52.916;6.542;2023-05-07T09:13:29;14.40;99.90
57108;DHT22;42987;52.916;6.542;2023-05-07T09:15:55;14.50;99.90
57108;DHT22;42987;52.916;6.542;2023-05-07T09:18:23;14.50;99.90
57108;DHT22;42987;52.916;6.542;2023-05-07T09:20:49;14.60;99.90
57108;DHT22;42987;52.916;6.542;2023-05-07T09:23:15;14.60;99.90
57108;DHT22;42987;52.916;6.542;2023-05-07T09:25:41;14.60;99.90
57108;DHT22;42987;52.916;6.542;2023-05-07T09:28:06;14.80;99.90
57108;DHT22;42987;52.916;6.542;2023-05-07T09:30:33;15.00;99.90
57108;DHT22;42987;52.916;6.542;2023-05-07T09:33:00;15.20;99.90
57108;DHT22;42987;52.916;6.542;2023-05-07T09:35:27;15.30;99.90
57108;DHT22;42987;52.916;6.542;2023-05-07T09:37:54;15.30;99.90
57108;DHT22;42987;52.916;6.542;2023-05-07T09:40:26;15.40;99.90
57108;DHT22;42987;52.916;6.542;2023-05-07T09:42:53;15.60;99.90
57108;DHT22;42987;52.916;6.542;2023-05-07T09:45:26;15.80;99.90
57108;DHT22;42987;52.916;6.542;2023-05-07T09:47:57;15.90;99.90
57108;DHT22;42987;52.916;6.542;2023-05-07T09:50:32;15.90;99.90
57108;DHT22;42987;52.916;6.542;2023-05-07T09:52:58;16.00;99.90
57108;DHT22;42987;52.916;6.542;2023-05-07T09:55:24;16.10;99.90
57108;DHT22;42987;52.916;6.542;2023-05-07T09:57:54;16.30;99.90
57108;DHT22;42987;52.916;6.542;2023-05-07T10:00:21;16.30;99.90
57108;DHT22;42987;52.916;6.542;2023-05-07T10:02:49;16.50;99.90
57108;DHT22;42987;52.916;6.542;2023-05-07T10:05:18;16.50;99.90
57108;DHT22;42987;52.916;6.542;2023-05-07T10:07:44;16.60;99.90
57108;DHT22;42987;52.916;6.542;2023-05-07T10:10:10;16.70;99.90
57108;DHT22;42987;52.916;6.542;2023-05-07T10:12:40;16.70;99.90
57108;DHT22;42987;52.916;6.542;2023-05-07T10:15:07;16.80;99.90
57108;DHT22;42987;52.916;6.542;2023-05-07T10:17:36;16.80;99.90
57108;DHT22;42987;52.916;6.542;2023-05-07T10:20:02;16.70;99.90
57108;DHT22;42987;52.916;6.542;2023-05-07T10:22:34;16.80;99.90
57108;DHT22;42987;52.916;6.542;2023-05-07T10:25:03;16.80;99.90
57108;DHT22;42987;52.916;6.542;2023-05-07T10:27:32;16.70;99.90
57108;DHT22;42987;52.916;6.542;2023-05-07T10:32:59;16.80;99.90
57108;DHT22;42987;52.916;6.542;2023-05-07T10:35:36;16.80;99.90
57108;DHT22;42987;52.916;6.542;2023-05-07T10:38:03;16.90;99.90
57108;DHT22;42987;52.916;6.542;2023-05-07T10:40:31;16.90;99.90
57108;DHT22;42987;52.916;6.542;2023-05-07T10:42:58;16.90;99.90
57108;DHT22;42987;52.916;6.542;2023-05-07T10:45:26;17.00;99.90
57108;DHT22;42987;52.916;6.542;2023-05-07T10:48:14;17.00;99.90
57108;DHT22;42987;52.916;6.542;2023-05-07T10:50:44;17.20;99.90
57108;DHT22;42987;52.916;6.542;2023-05-07T10:55:46;17.40;99.90
57108;DHT22;42987;52.916;6.542;2023-05-07T10:58:28;17.60;99.90
57108;DHT22;42987;52.916;6.542;2023-05-07T11:00:57;17.70;99.90
57108;DHT22;42987;52.916;6.542;2023-05-07T11:03:24;17.90;99.90
57108;DHT22;42987;52.916;6.542;2023-05-07T11:06:26;17.90;99.90
57108;DHT22;42987;52.916;6.542;2023-05-07T11:08:56;18.00;99.90
57108;DHT22;42987;52.916;6.542;2023-05-07T11:11:48;18.00;99.90
57108;DHT22;42987;52.916;6.542;2023-05-07T11:17:07;18.00;99.90
57108;DHT22;42987;52.916;6.542;2023-05-07T11:19:55;18.00;99.90
57108;DHT22;42987;52.916;6.542;2023-05-07T11:24:58;18.00;99.90
57108;DHT22;42987;52.916;6.542;2023-05-07T11:27:25;17.90;99.90
57108;DHT22;42987;52.916;6.542;2023-05-07T11:29:52;17.90;99.90
57108;DHT22;42987;52.916;6.542;2023-05-07T11:32:24;18.00;99.90
57108;DHT22;42987;52.916;6.542;2023-05-07T11:34:58;17.90;99.90
57108;DHT22;42987;52.916;6.542;2023-05-07T11:37:25;17.80;99.90
57108;DHT22;42987;52.916;6.542;2023-05-07T11:40:03;17.80;99.90
57108;DHT22;42987;52.916;6.542;2023-05-07T11:42:34;17.80;99.90
57108;DHT22;42987;52.916;6.542;2023-05-07T11:45:01;17.70;99.90
57108;DHT22;42987;52.916;6.542;2023-05-07T11:47:30;17.70;99.90
57108;DHT22;42987;52.916;6.542;2023-05-07T11:50:02;17.70;99.90
57108;DHT22;42987;52.916;6.542;2023-05-07T11:52:28;17.80;99.90
57108;DHT22;42987;52.916;6.542;2023-05-07T11:54:56;17.90;99.90
57108;DHT22;42987;52.916;6.542;2023-05-07T11:57:23;18.00;99.90
57108;DHT22;42987;52.916;6.542;2023-05-07T12:00:01;18.10;99.90
57108;DHT22;42987;52.916;6.542;2023-05-07T12:02:29;18.00;99.90
57108;DHT22;42987;52.916;6.542;2023-05-07T12:04:55;18.10;99.90
57108;DHT22;42987;52.916;6.542;2023-05-07T12:07:24;18.10;99.90
57108;DHT22;42987;52.916;6.542;2023-05-07T12:09:50;18.10;99.90
57108;DHT22;42987;52.916;6.542;2023-05-07T12:12:17;18.30;99.90
57108;DHT22;42987;52.916;6.542;2023-05-07T12:14:45;18.40;99.90
57108;DHT22;42987;52.916;6.542;2023-05-07T12:17:12;18.40;99.90
57108;DHT22;42987;52.916;6.542;2023-05-07T12:19:43;18.50;99.90
57108;DHT22;42987;52.916;6.542;2023-05-07T12:22:09;18.60;99.90
57108;DHT22;42987;52.916;6.542;2023-05-07T12:24:49;18.80;99.90
57108;DHT22;42987;52.916;6.542;2023-05-07T12:27:15;18.90;99.90
57108;DHT22;42987;52.916;6.542;2023-05-07T12:29:46;19.00;99.90
57108;DHT22;42987;52.916;6.542;2023-05-07T12:32:17;19.20;99.90
57108;DHT22;42987;52.916;6.542;2023-05-07T12:34:44;19.30;99.90
57108;DHT22;42987;52.916;6.542;2023-05-07T12:37:10;19.40;99.90
57108;DHT22;42987;52.916;6.542;2023-05-07T12:39:36;19.40;99.90
57108;DHT22;42987;52.916;6.542;2023-05-07T12:42:02;19.40;99.90
57108;DHT22;42987;52.916;6.542;2023-05-07T12:44:32;19.50;99.90
57108;DHT22;42987;52.916;6.542;2023-05-07T12:47:01;19.50;99.90
57108;DHT22;42987;52.916;6.542;2023-05-07T12:49:27;19.50;99.90
57108;DHT22;42987;52.916;6.542;2023-05-07T12:51:54;19.50;99.90
57108;DHT22;42987;52.916;6.542;2023-05-07T12:54:33;19.70;99.90
57108;DHT22;42987;52.916;6.542;2023-05-07T12:57:03;19.80;99.90
57108;DHT22;42987;52.916;6.542;2023-05-07T12:59:40;19.70;99.90
57108;DHT22;42987;52.916;6.542;2023-05-07T13:02:09;19.70;99.90
57108;DHT22;42987;52.916;6.542;2023-05-07T13:04:35;19.60;99.90
57108;DHT22;42987;52.916;6.542;2023-05-07T13:07:02;19.50;99.90
57108;DHT22;42987;52.916;6.542;2023-05-07T13:09:28;19.30;99.90
57108;DHT22;42987;52.916;6.542;2023-05-07T13:11:59;19.40;99.90
57108;DHT22;42987;52.916;6.542;2023-05-07T13:14:28;19.60;99.90
57108;DHT22;42987;52.916;6.542;2023-05-07T13:16:54;19.60;99.90
57108;DHT22;42987;52.916;6.542;2023-05-07T13:19:19;19.70;99.90
57108;DHT22;42987;52.916;6.542;2023-05-07T13:21:48;19.80;99.90
57108;DHT22;42987;52.916;6.542;2023-05-07T13:24:15;19.80;99.90
57108;DHT22;42987;52.916;6.542;2023-05-07T13:26:41;19.70;99.90
57108;DHT22;42987;52.916;6.542;2023-05-07T13:29:06;19.70;99.90
57108;DHT22;42987;52.916;6.542;2023-05-07T13:31:32;19.60;99.90
57108;DHT22;42987;52.916;6.542;2023-05-07T13:33:59;19.60;99.90
57108;DHT22;42987;52.916;6.542;2023-05-07T13:36:25;19.50;99.90
57108;DHT22;42987;52.916;6.542;2023-05-07T13:38:52;19.50;99.90
57108;DHT22;42987;52.916;6.542;2023-05-07T13:41:17;19.60;99.90
57108;DHT22;42987;52.916;6.542;2023-05-07T13:43:43;19.80;99.90
57108;DHT22;42987;52.916;6.542;2023-05-07T13:46:09;19.80;99.90
57108;DHT22;42987;52.916;6.542;2023-05-07T13:48:35;19.80;99.90
57108;DHT22;42987;52.916;6.542;2023-05-07T13:51:01;19.70;99.90
57108;DHT22;42987;52.916;6.542;2023-05-07T13:53:26;19.70;99.90
57108;DHT22;42987;52.916;6.542;2023-05-07T13:55:52;19.60;99.90
57108;DHT22;42987;52.916;6.542;2023-05-07T13:58:18;19.30;99.90
57108;DHT22;42987;52.916;6.542;2023-05-07T14:00:44;19.30;99.90
57108;DHT22;42987;52.916;6.542;2023-05-07T14:03:10;19.30;99.90
57108;DHT22;42987;52.916;6.542;2023-05-07T14:05:35;19.10;99.90
57108;DHT22;42987;52.916;6.542;2023-05-07T14:08:04;19.00;99.90
57108;DHT22;42987;52.916;6.542;2023-05-07T14:10:30;18.90;99.90
57108;DHT22;42987;52.916;6.542;2023-05-07T14:12:57;18.90;99.90
57108;DHT22;42987;52.916;6.542;2023-05-07T14:15:26;18.80;99.90
57108;DHT22;42987;52.916;6.542;2023-05-07T14:17:51;18.80;99.90
57108;DHT22;42987;52.916;6.542;2023-05-07T14:20:17;18.80;99.90
57108;DHT22;42987;52.916;6.542;2023-05-07T14:22:44;18.80;99.90
57108;DHT22;42987;52.916;6.542;2023-05-07T14:25:10;18.70;99.90
57108;DHT22;42987;52.916;6.542;2023-05-07T14:27:36;18.70;99.90
57108;DHT22;42987;52.916;6.542;2023-05-07T14:30:02;18.70;99.90
57108;DHT22;42987;52.916;6.542;2023-05-07T14:32:30;18.80;99.90
57108;DHT22;42987;52.916;6.542;2023-05-07T14:34:56;18.70;99.90
57108;DHT22;42987;52.916;6.542;2023-05-07T14:37:22;18.70;99.90
57108;DHT22;42987;52.916;6.542;2023-05-07T14:39:47;18.70;99.90
57108;DHT22;42987;52.916;6.542;2023-05-07T14:42:13;18.70;99.90
57108;DHT22;42987;52.916;6.542;2023-05-07T14:44:39;18.60;99.90
57108;DHT22;42987;52.916;6.542;2023-05-07T14:47:07;18.70;99.90
57108;DHT22;42987;52.916;6.542;2023-05-07T14:49:33;18.60;99.90
57108;DHT22;42987;52.916;6.542;2023-05-07T14:51:59;18.50;99.90
57108;DHT22;42987;52.916;6.542;2023-05-07T14:54:25;18.50;99.90
57108;DHT22;42987;52.916;6.542;2023-05-07T14:56:51;18.40;99.90
57108;DHT22;42987;52.916;6.542;2023-05-07T14:59:18;18.40;99.90
57108;DHT22;42987;52.916;6.542;2023-05-07T15:01:47;18.40;99.90
57108;DHT22;42987;52.916;6.542;2023-05-07T15:04:13;18.50;99.90
57108;DHT22;42987;52.916;6.542;2023-05-07T15:06:38;18.50;99.90
57108;DHT22;42987;52.916;6.542;2023-05-07T15:09:04;18.60;99.90
57108;DHT22;42987;52.916;6.542;2023-05-07T15:11:30;18.70;99.90
57108;DHT22;42987;52.916;6.542;2023-05-07T15:13:56;18.80;99.90
57108;DHT22;42987;52.916;6.542;2023-05-07T15:16:22;18.80;99.90
57108;DHT22;42987;52.916;6.542;2023-05-07T15:18:48;18.70;99.90
57108;DHT22;42987;52.916;6.542;2023-05-07T15:21:14;18.60;99.90
57108;DHT22;42987;52.916;6.542;2023-05-07T15:23:41;18.70;99.90
57108;DHT22;42987;52.916;6.542;2023-05-07T15:26:07;18.60;99.90
57108;DHT22;42987;52.916;6.542;2023-05-07T15:28:33;18.60;99.90
57108;DHT22;42987;52.916;6.542;2023-05-07T15:30:59;18.70;99.90
57108;DHT22;42987;52.916;6.542;2023-05-07T15:33:25;18.80;99.90
57108;DHT22;42987;52.916;6.542;2023-05-07T15:35:54;19.00;99.90
57108;DHT22;42987;52.916;6.542;2023-05-07T15:38:19;19.20;99.90
57108;DHT22;42987;52.916;6.542;2023-05-07T15:40:45;19.40;99.90